createdAt,value
2019-04-06T00:00:33.873Z,13.03
2019-04-06T00:03:02.821Z,9.98
2019-04-06T00:05:31.864Z,10.93
2019-04-06T00:08:01.093Z,10.55
2019-04-06T00:10:30.465Z,9.83
2019-04-06T00:12:59.490Z,10.75
2019-04-06T00:15:28.634Z,9.93
2019-04-06T00:17:57.770Z,12.45
2019-04-06T00:20:26.805Z,9.83
2019-04-06T00:22:56.362Z,10.43
2019-04-06T00:25:25.535Z,10.10
2019-04-06T00:27:54.553Z,9.60
2019-04-06T00:30:24.124Z,11.48
2019-04-06T00:32:57.536Z,11.45
2019-04-06T00:35:26.542Z,8.90
2019-04-06T00:37:55.647Z,11.65
2019-04-06T00:40:25.099Z,12.65
2019-04-06T00:42:54.165Z,14.98
2019-04-06T00:45:23.454Z,12.37
2019-04-06T00:47:52.399Z,12.68
2019-04-06T00:50:21.542Z,12.15
2019-04-06T00:52:50.567Z,11.05
2019-04-06T00:55:19.644Z,13.20
2019-04-06T00:57:48.888Z,12.07
2019-04-06T01:00:18.489Z,10.00
2019-04-06T01:02:48.039Z,10.90
2019-04-06T01:05:17.067Z,12.58
2019-04-06T01:07:46.618Z,11.65
2019-04-06T01:10:15.834Z,12.15
2019-04-06T01:12:44.791Z,12.23
2019-04-06T01:15:13.921Z,13.88
2019-04-06T01:17:43.095Z,12.70
2019-04-06T01:20:12.321Z,15.25
2019-04-06T01:22:41.506Z,13.13
2019-04-06T01:25:10.953Z,14.80
2019-04-06T01:27:39.935Z,13.58
2019-04-06T01:30:09.818Z,13.13
2019-04-06T01:32:38.703Z,12.82
2019-04-06T01:35:07.919Z,12.47
2019-04-06T01:37:37.569Z,14.78
2019-04-06T01:40:07.954Z,15.32
2019-04-06T01:42:37.016Z,13.10
2019-04-06T01:45:06.479Z,13.75
2019-04-06T01:47:35.654Z,13.58
2019-04-06T01:50:04.885Z,13.72
2019-04-06T01:52:34.645Z,12.18
2019-04-06T01:55:03.974Z,11.15
2019-04-06T01:57:32.885Z,13.93
2019-04-06T02:00:01.881Z,14.05
2019-04-06T02:02:33.320Z,12.37
2019-04-06T02:05:02.264Z,13.60
2019-04-06T02:07:31.582Z,13.07
2019-04-06T02:10:00.725Z,11.75
2019-04-06T02:12:29.711Z,12.57
2019-04-06T02:14:59.133Z,14.13
2019-04-06T02:17:28.014Z,12.28
2019-04-06T02:19:57.022Z,13.75
2019-04-06T02:22:26.491Z,11.93
2019-04-06T02:24:55.800Z,12.35
2019-04-06T02:27:25.041Z,12.85
2019-04-06T02:30:13.353Z,12.70
2019-04-06T02:33:04.466Z,13.90
2019-04-06T02:35:55.710Z,15.28
2019-04-06T02:38:56.247Z,11.65
2019-04-06T02:41:50.823Z,12.00
2019-04-06T02:44:20.388Z,14.07
2019-04-06T02:46:49.724Z,11.97
2019-04-06T02:49:18.632Z,11.00
2019-04-06T02:51:47.577Z,12.90
2019-04-06T02:54:16.616Z,14.03
2019-04-06T02:56:47.646Z,13.33
2019-04-06T02:59:16.809Z,14.85
2019-04-06T03:01:45.856Z,16.13
2019-04-06T03:04:14.903Z,14.87
2019-04-06T03:06:43.948Z,14.37
2019-04-06T03:09:13.127Z,13.72
2019-04-06T03:11:42.251Z,14.63
2019-04-06T03:14:11.538Z,14.25
2019-04-06T03:16:40.733Z,16.47
2019-04-06T03:19:09.781Z,13.30
2019-04-06T03:21:38.786Z,14.03
2019-04-06T03:24:07.762Z,15.53
2019-04-06T03:26:37.152Z,15.43
2019-04-06T03:29:06.179Z,15.03
2019-04-06T03:31:35.198Z,15.20
2019-04-06T03:34:04.238Z,15.40
2019-04-06T03:36:33.546Z,18.90
2019-04-06T03:39:02.670Z,18.52
2019-04-06T03:41:31.604Z,16.20
2019-04-06T03:44:00.547Z,15.10
2019-04-06T03:46:29.632Z,17.32
2019-04-06T03:48:58.757Z,16.77
2019-04-06T03:51:27.781Z,18.63
2019-04-06T03:53:56.763Z,18.82
2019-04-06T03:56:25.717Z,16.23
2019-04-06T03:58:54.788Z,18.37
2019-04-06T04:01:23.858Z,16.80
2019-04-06T04:03:52.702Z,16.45
2019-04-06T04:06:21.646Z,15.37
2019-04-06T04:08:50.585Z,16.67
2019-04-06T04:11:19.913Z,16.00
2019-04-06T04:13:48.928Z,17.73
2019-04-06T04:16:17.956Z,17.55
2019-04-06T04:18:47.260Z,14.73
2019-04-06T04:21:16.254Z,18.40
2019-04-06T04:23:45.160Z,17.87
2019-04-06T04:26:14.139Z,16.33
2019-04-06T04:28:42.970Z,18.87
2019-04-06T04:31:11.890Z,16.70
2019-04-06T04:33:40.913Z,17.32
2019-04-06T04:36:09.870Z,17.93
2019-04-06T04:38:39.307Z,17.77
2019-04-06T04:41:08.350Z,19.50
2019-04-06T04:43:37.160Z,18.82
2019-04-06T04:46:06.492Z,18.93
2019-04-06T04:48:35.541Z,18.15
2019-04-06T04:51:04.631Z,19.67
2019-04-06T04:53:33.984Z,19.82
2019-04-06T04:56:02.904Z,19.80
2019-04-06T04:58:31.834Z,16.00
2019-04-06T05:01:01.387Z,18.63
2019-04-06T05:03:30.227Z,16.87
2019-04-06T05:05:59.134Z,16.00
2019-04-06T05:08:28.583Z,15.80
2019-04-06T05:10:57.653Z,16.43
2019-04-06T05:13:26.529Z,17.87
2019-04-06T05:16:21.034Z,16.60
2019-04-06T05:18:50.067Z,18.05
2019-04-06T05:21:19.347Z,17.57
2019-04-06T05:23:48.282Z,18.32
2019-04-06T05:26:17.338Z,16.33
2019-04-06T05:28:46.231Z,17.57
2019-04-06T05:31:15.425Z,16.77
2019-04-06T05:33:44.390Z,15.18
2019-04-06T05:36:13.233Z,15.78
2019-04-06T05:38:42.170Z,18.27
2019-04-06T05:41:11.209Z,17.63
2019-04-06T05:43:40.106Z,16.60
2019-04-06T05:46:09.231Z,16.97
2019-04-06T05:48:38.076Z,15.45
2019-04-06T05:51:06.968Z,17.30
2019-04-06T05:53:35.812Z,18.48
2019-04-06T05:56:05.224Z,15.27
2019-04-06T05:58:34.144Z,16.73
2019-04-06T06:01:04.052Z,19.53
2019-04-06T06:03:33.712Z,16.97
2019-04-06T06:06:03.155Z,16.95
2019-04-06T06:08:32.082Z,16.50
2019-04-06T06:11:01.262Z,17.97
2019-04-06T06:13:30.491Z,18.52
2019-04-06T06:15:59.596Z,18.47
2019-04-06T06:18:28.548Z,19.20
2019-04-06T06:20:57.635Z,17.48
2019-04-06T06:23:26.575Z,18.12
2019-04-06T06:25:55.637Z,19.83
2019-04-06T06:28:24.642Z,19.20
2019-04-06T06:30:53.932Z,20.67
2019-04-06T06:33:23.375Z,18.95
2019-04-06T06:35:53.009Z,20.08
2019-04-06T06:38:22.021Z,18.90
2019-04-06T06:40:51.139Z,19.50
2019-04-06T06:43:20.531Z,19.00
2019-04-06T06:45:49.533Z,21.73
2019-04-06T06:48:18.505Z,21.00
2019-04-06T06:50:47.450Z,18.75
2019-04-06T06:53:16.330Z,23.42
2019-04-06T06:55:45.322Z,22.73
2019-04-06T06:58:24.600Z,21.73
2019-04-06T07:00:45.171Z,21.23
2019-04-06T07:03:14.183Z,21.80
2019-04-06T07:05:43.129Z,17.50
2019-04-06T07:08:12.684Z,19.98
2019-04-06T07:10:41.783Z,19.30
2019-04-06T07:13:10.850Z,22.65
2019-04-06T07:15:42.936Z,21.10
2019-04-06T07:18:11.454Z,22.10
2019-04-06T07:20:40.426Z,23.87
2019-04-06T07:23:09.450Z,22.77
2019-04-06T07:25:38.299Z,24.50
2019-04-06T07:28:07.210Z,23.42
2019-04-06T07:30:36.295Z,21.80
2019-04-06T07:33:05.724Z,23.92
2019-04-06T07:35:35.097Z,23.07
2019-04-06T07:38:04.069Z,22.02
2019-04-06T07:40:32.980Z,20.03
2019-04-06T07:43:02.306Z,21.47
2019-04-06T07:45:31.653Z,22.05
2019-04-06T07:48:01.001Z,22.93
2019-04-06T07:50:30.058Z,22.63
2019-04-06T07:52:59.337Z,22.22
2019-04-06T07:55:28.415Z,21.87
2019-04-06T07:57:57.436Z,21.87
2019-04-06T08:00:26.431Z,24.50
2019-04-06T08:02:55.390Z,28.00
2019-04-06T08:05:24.441Z,22.75
2019-04-06T08:07:53.440Z,23.02
2019-04-06T08:10:22.654Z,23.47
2019-04-06T08:12:51.760Z,23.38
2019-04-06T08:15:20.816Z,24.77
2019-04-06T08:17:50.207Z,26.15
2019-04-06T08:20:19.579Z,25.60
2019-04-06T08:22:48.564Z,25.50
2019-04-06T08:25:17.552Z,25.97
2019-04-06T08:27:46.627Z,23.63
2019-04-06T08:30:15.967Z,24.67
2019-04-06T08:32:44.915Z,27.80
2019-04-06T08:35:24.416Z,25.07
2019-04-06T08:37:45.106Z,22.77
2019-04-06T08:40:14.308Z,21.43
2019-04-06T08:42:43.650Z,27.43
2019-04-06T08:45:14.074Z,23.33
2019-04-06T08:47:43.263Z,27.77
2019-04-06T08:50:12.571Z,25.97
2019-04-06T08:52:41.787Z,24.73
2019-04-06T08:55:10.886Z,24.83
2019-04-06T08:57:39.823Z,26.07
2019-04-06T09:00:09.224Z,24.13
2019-04-06T09:02:38.290Z,25.23
2019-04-06T09:05:07.709Z,26.90
2019-04-06T09:07:36.622Z,25.80
2019-04-06T09:10:06.317Z,28.00
2019-04-06T09:12:35.595Z,27.33
2019-04-06T09:15:04.967Z,22.87
2019-04-06T09:17:34.710Z,21.83
2019-04-06T09:20:04.252Z,23.13
2019-04-06T09:22:33.193Z,23.13
2019-04-06T09:25:02.510Z,24.40
2019-04-06T09:27:31.820Z,24.70
2019-04-06T09:30:01.702Z,25.30
2019-04-06T09:32:30.826Z,22.83
2019-04-06T09:34:59.717Z,23.90
2019-04-06T09:37:28.890Z,22.10
2019-04-06T09:39:58.110Z,20.47
2019-04-06T09:42:27.324Z,25.37
2019-04-06T09:45:01.979Z,23.20
2019-04-06T09:47:49.971Z,24.30
2019-04-06T09:50:44.561Z,25.00
2019-04-06T09:53:25.958Z,25.70
2019-04-06T09:56:18.201Z,25.27
2019-04-06T09:59:09.046Z,21.90
2019-04-06T10:02:15.685Z,24.93
2019-04-06T10:05:03.824Z,21.43
2019-04-06T10:07:54.910Z,22.03
2019-04-06T10:10:43.234Z,21.37
2019-04-06T10:13:30.041Z,21.33
2019-04-06T10:16:08.785Z,20.83
2019-04-06T10:18:56.107Z,19.97
2019-04-06T10:21:50.254Z,21.47
2019-04-06T10:24:45.698Z,19.30
2019-04-06T10:27:33.340Z,23.53
2019-04-06T10:30:33.871Z,22.77
2019-04-06T10:33:21.874Z,20.77
2019-04-06T10:36:13.469Z,20.97
2019-04-06T10:39:06.989Z,21.33
2019-04-06T10:41:45.608Z,20.67
2019-04-06T10:44:40.008Z,21.27
2019-04-06T10:47:27.265Z,21.13
2019-04-06T10:50:02.670Z,20.20
2019-04-06T10:52:59.970Z,23.80
2019-04-06T10:55:44.386Z,22.30
2019-04-06T10:58:22.204Z,20.70
2019-04-06T11:01:13.709Z,18.60
2019-04-06T11:04:10.694Z,20.60
2019-04-06T11:06:51.390Z,17.87
2019-04-06T11:09:39.375Z,20.13
2019-04-06T11:12:26.217Z,22.30
2019-04-06T11:15:17.661Z,20.03
2019-04-06T11:17:56.318Z,18.73
2019-04-06T11:20:42.424Z,19.80
2019-04-06T11:23:34.281Z,16.93
2019-04-06T11:26:22.208Z,15.97
2019-04-06T11:29:20.171Z,17.47
2019-04-06T11:31:58.876Z,16.23
2019-04-06T11:34:38.587Z,14.57
2019-04-06T11:37:38.684Z,18.30
2019-04-06T11:40:31.563Z,19.03
2019-04-06T11:43:25.533Z,19.80
2019-04-06T11:46:13.559Z,19.23
2019-04-06T11:49:10.707Z,15.50
2019-04-06T11:52:07.803Z,16.97
2019-04-06T11:54:51.514Z,16.50
2019-04-06T11:57:55.277Z,16.33
2019-04-06T12:00:47.380Z,15.03
2019-04-06T12:03:22.013Z,17.37
2019-04-06T12:05:57.694Z,17.57
2019-04-06T12:08:42.786Z,14.80
2019-04-06T12:11:29.605Z,16.27
2019-04-06T12:14:16.650Z,17.57
2019-04-06T12:17:23.737Z,16.10
2019-04-06T12:20:30.474Z,18.37
2019-04-06T12:23:24.236Z,17.97
2019-04-06T12:26:06.184Z,17.00
2019-04-06T12:28:54.205Z,16.23
2019-04-06T12:31:33.294Z,17.37
2019-04-06T12:34:21.773Z,17.50
2019-04-06T12:37:16.772Z,14.93
2019-04-06T12:39:58.306Z,15.57
2019-04-06T12:42:55.495Z,15.33
2019-04-06T12:45:42.818Z,15.80
2019-04-06T12:48:19.954Z,14.83
2019-04-06T12:50:57.126Z,16.70
2019-04-06T12:53:45.188Z,14.07
2019-04-06T12:56:20.194Z,13.33
2019-04-06T12:59:08.179Z,12.23
2019-04-06T13:01:54.995Z,13.23
2019-04-06T13:04:41.891Z,18.40
2019-04-06T13:07:24.648Z,16.77
2019-04-06T13:10:15.778Z,13.23
2019-04-06T13:13:03.271Z,15.33
2019-04-06T13:16:00.657Z,15.27
2019-04-06T13:18:41.186Z,14.27
2019-04-06T13:21:28.284Z,13.43
2019-04-06T13:24:05.797Z,13.47
2019-04-06T13:26:42.915Z,16.33
2019-04-06T13:29:37.106Z,12.23
2019-04-06T13:32:15.143Z,12.53
2019-04-06T13:35:00.210Z,12.83
2019-04-06T13:37:43.626Z,13.40
2019-04-06T13:40:22.565Z,14.77
2019-04-06T13:43:09.601Z,13.67
2019-04-06T13:46:16.127Z,13.30
2019-04-06T13:48:59.374Z,16.90
2019-04-06T13:51:36.571Z,14.10
2019-04-06T13:54:36.829Z,13.40
2019-04-06T13:57:12.462Z,14.77
2019-04-06T13:59:49.988Z,13.87
2019-04-06T14:02:25.306Z,13.53
2019-04-06T14:05:06.963Z,16.57
2019-04-06T14:07:58.222Z,16.13
2019-04-06T14:10:46.050Z,15.63
2019-04-06T14:13:22.321Z,15.80
2019-04-06T14:16:13.521Z,14.43
2019-04-06T14:19:10.645Z,14.57
2019-04-06T14:22:02.106Z,14.93
2019-04-06T14:24:42.838Z,12.43
2019-04-06T14:27:25.795Z,15.33
2019-04-06T14:30:08.090Z,14.27
2019-04-06T14:32:59.291Z,16.17
2019-04-06T14:35:44.402Z,13.03
2019-04-06T14:38:31.583Z,13.73
2019-04-06T14:41:12.750Z,15.10
2019-04-06T14:44:10.332Z,16.27
2019-04-06T14:47:01.602Z,12.50
2019-04-06T14:49:53.265Z,14.57
2019-04-06T14:53:00.238Z,13.17
2019-04-06T14:55:36.061Z,11.03
2019-04-06T14:58:15.743Z,11.90
2019-04-06T15:01:01.577Z,11.83
2019-04-06T15:03:50.062Z,10.83
2019-04-06T15:06:28.717Z,10.23
2019-04-06T15:09:06.424Z,12.07
2019-04-06T15:11:42.066Z,11.37
2019-04-06T15:14:30.275Z,12.03
2019-04-06T15:17:17.999Z,14.53
2019-04-06T15:20:18.660Z,13.70
2019-04-06T15:23:02.693Z,12.33
2019-04-06T15:25:46.714Z,10.47
2019-04-06T15:28:46.866Z,10.27
2019-04-06T15:31:27.299Z,10.70
2019-04-06T15:34:14.067Z,9.47
2019-04-06T15:37:08.468Z,12.07
2019-04-06T15:39:59.634Z,11.23
2019-04-06T15:42:36.995Z,10.80
2019-04-06T15:45:31.448Z,11.80
2019-04-06T15:48:18.302Z,13.90
2019-04-06T15:51:09.710Z,12.57
2019-04-06T15:53:51.050Z,23.63
2019-04-06T15:56:35.271Z,12.30
2019-04-06T15:59:15.994Z,43.80
2019-04-06T16:02:07.145Z,15.90
2019-04-06T16:04:51.614Z,11.87
2019-04-06T16:07:54.952Z,9.67
2019-04-06T16:10:55.325Z,11.60
2019-04-06T16:13:36.316Z,9.00
2019-04-06T16:16:15.432Z,9.90
2019-04-06T16:19:02.883Z,8.50
2019-04-06T16:21:53.928Z,10.93
2019-04-06T16:24:37.726Z,8.47
2019-04-06T16:27:31.962Z,7.77
2019-04-06T16:30:15.301Z,8.50
2019-04-06T16:32:54.252Z,9.00
2019-04-06T16:35:51.440Z,9.93
2019-04-06T16:38:39.834Z,8.87
2019-04-06T16:41:23.503Z,9.20
2019-04-06T16:44:09.402Z,9.53
2019-04-06T16:46:57.424Z,9.40
2019-04-06T16:49:57.934Z,8.23
2019-04-06T16:53:01.294Z,8.20
2019-04-06T16:55:55.961Z,9.83
2019-04-06T16:58:56.240Z,8.67
2019-04-06T17:01:32.432Z,8.83
2019-04-06T17:04:23.441Z,10.27
2019-04-06T17:07:10.062Z,9.40
2019-04-06T17:10:06.999Z,8.07
2019-04-06T17:13:04.306Z,9.73
2019-04-06T17:15:41.029Z,7.53
2019-04-06T17:18:18.326Z,8.70
2019-04-06T17:21:16.115Z,8.43
2019-04-06T17:24:04.304Z,7.80
2019-04-06T17:26:52.303Z,8.70
2019-04-06T17:29:55.726Z,8.30
2019-04-06T17:32:50.371Z,7.87
2019-04-06T17:35:36.984Z,8.60
2019-04-06T17:38:34.233Z,7.40
2019-04-06T17:41:12.983Z,6.77
2019-04-06T17:44:01.088Z,6.53
2019-04-06T17:46:49.779Z,6.07
2019-04-06T17:49:30.756Z,6.80
2019-04-06T17:52:18.133Z,6.43
2019-04-06T17:55:06.796Z,5.40
2019-04-06T17:57:53.722Z,6.47
2019-04-06T18:00:53.980Z,6.83
2019-04-06T18:03:37.775Z,5.27
2019-04-06T18:06:17.552Z,7.53
2019-04-06T18:09:05.851Z,5.70
2019-04-06T18:11:44.609Z,6.90
2019-04-06T18:14:14.630Z,6.67
2019-04-06T18:16:43.647Z,5.87
2019-04-06T18:19:12.867Z,5.67
2019-04-06T18:21:41.835Z,5.57
2019-04-06T18:24:11.199Z,6.30
2019-04-06T18:26:40.212Z,5.57
2019-04-06T18:29:09.083Z,5.40
2019-04-06T18:31:53.681Z,6.03
2019-04-06T18:34:22.875Z,5.13
2019-04-06T18:37:10.118Z,6.50
2019-04-06T18:39:39.268Z,5.30
2019-04-06T18:42:08.406Z,6.87
2019-04-06T18:44:37.538Z,5.80
2019-04-06T18:47:06.852Z,5.57
2019-04-06T18:49:35.862Z,4.67
2019-04-06T18:52:05.129Z,5.17
2019-04-06T18:54:34.667Z,5.53
2019-04-06T18:57:03.704Z,6.53
2019-04-06T18:59:32.538Z,7.77
2019-04-06T19:02:01.556Z,6.27
2019-04-06T19:04:30.414Z,5.40
2019-04-06T19:06:59.339Z,5.73
2019-04-06T19:09:28.258Z,5.73
2019-04-06T19:11:57.451Z,5.97
2019-04-06T19:14:26.911Z,6.13
2019-04-06T19:16:55.985Z,5.77
2019-04-06T19:19:24.931Z,6.20
2019-04-06T19:21:54.608Z,6.70
2019-04-06T19:24:23.619Z,6.40
2019-04-06T19:26:52.905Z,5.73
2019-04-06T19:29:21.825Z,6.30
2019-04-06T19:31:50.830Z,6.17
2019-04-06T19:34:20.623Z,6.07
2019-04-06T19:36:50.979Z,5.43
2019-04-06T19:39:20.727Z,6.47
2019-04-06T19:41:49.792Z,6.47
2019-04-06T19:44:18.745Z,6.47
2019-04-06T19:46:47.855Z,8.97
2019-04-06T19:49:16.714Z,8.30
2019-04-06T19:51:45.631Z,7.00
2019-04-06T19:54:14.602Z,6.77
2019-04-06T19:56:44.027Z,6.77
2019-04-06T19:59:13.757Z,6.47
2019-04-06T20:01:43.037Z,7.10
2019-04-06T20:04:12.163Z,6.27
2019-04-06T20:06:41.063Z,6.57
2019-04-06T20:09:10.829Z,6.40
2019-04-06T20:11:40.182Z,6.73
2019-04-06T20:14:09.634Z,6.43
2019-04-06T20:16:38.605Z,9.07
2019-04-06T20:19:07.895Z,11.97
2019-04-06T20:21:37.413Z,10.00
2019-04-06T20:24:06.844Z,9.53
2019-04-06T20:26:36.102Z,7.37
2019-04-06T20:29:05.176Z,7.77
2019-04-06T20:31:34.201Z,7.87
2019-04-06T20:34:03.410Z,8.43
2019-04-06T20:36:32.726Z,7.93
2019-04-06T20:39:02.056Z,8.47
2019-04-06T20:41:30.908Z,10.40
2019-04-06T20:43:59.788Z,8.87
2019-04-06T20:46:29.766Z,9.80
2019-04-06T20:48:59.027Z,10.20
2019-04-06T20:51:27.898Z,10.47
2019-04-06T20:53:57.072Z,11.53
2019-04-06T20:56:26.319Z,10.13
2019-04-06T20:58:55.591Z,10.33
2019-04-06T21:01:24.934Z,10.17
2019-04-06T21:04:01.002Z,11.20
2019-04-06T21:06:24.768Z,9.77
2019-04-06T21:08:53.799Z,12.10
2019-04-06T21:11:23.291Z,9.43
2019-04-06T21:13:52.819Z,10.67
2019-04-06T21:16:22.752Z,12.00
2019-04-06T21:18:51.741Z,10.43
2019-04-06T21:21:21.049Z,12.67
2019-04-06T21:23:50.059Z,12.50
2019-04-06T21:26:19.088Z,10.47
2019-04-06T21:28:48.009Z,11.50
2019-04-06T21:31:16.957Z,12.47
2019-04-06T21:33:46.565Z,9.87
2019-04-06T21:36:16.274Z,16.23
2019-04-06T21:38:45.783Z,13.03
2019-04-06T21:41:15.005Z,11.00
2019-04-06T21:43:44.564Z,17.13
2019-04-06T21:46:13.596Z,13.63
2019-04-06T21:48:42.500Z,12.97
2019-04-06T21:51:12.446Z,14.30
2019-04-06T21:53:42.451Z,14.67
2019-04-06T21:56:11.522Z,14.33
2019-04-06T21:58:41.391Z,12.03
2019-04-06T22:01:12.478Z,14.97
2019-04-06T22:03:41.798Z,12.37
2019-04-06T22:06:11.764Z,16.43
2019-04-06T22:08:41.764Z,16.83
2019-04-06T22:11:11.046Z,14.13
2019-04-06T22:13:39.926Z,14.43
2019-04-06T22:16:08.905Z,16.10
2019-04-06T22:18:38.143Z,15.27
2019-04-06T22:21:07.169Z,14.10
2019-04-06T22:23:42.059Z,13.43
2019-04-06T22:26:07.193Z,13.50
2019-04-06T22:28:36.699Z,13.57
2019-04-06T22:31:05.794Z,15.47
2019-04-06T22:33:35.419Z,16.13
2019-04-06T22:36:04.568Z,14.40
2019-04-06T22:38:33.815Z,14.37
2019-04-06T22:41:02.678Z,16.63
2019-04-06T22:43:31.823Z,13.37
2019-04-06T22:46:01.540Z,13.50
2019-04-06T22:48:30.872Z,13.53
2019-04-06T22:51:00.173Z,13.63
2019-04-06T22:53:29.487Z,12.67
2019-04-06T22:55:58.596Z,13.23
2019-04-06T22:58:28.151Z,12.03
2019-04-06T23:01:08.267Z,10.60
2019-04-06T23:03:58.436Z,13.70
2019-04-06T23:06:32.369Z,11.40
2019-04-06T23:09:01.507Z,12.60
2019-04-06T23:11:31.175Z,11.90
2019-04-06T23:14:00.839Z,12.87
2019-04-06T23:16:29.932Z,10.33
2019-04-06T23:18:59.096Z,15.67
2019-04-06T23:21:28.099Z,10.80
2019-04-06T23:23:57.873Z,12.00
2019-04-06T23:26:27.212Z,10.40
2019-04-06T23:28:56.550Z,12.23
2019-04-06T23:31:25.787Z,12.97
2019-04-06T23:33:55.070Z,12.60
2019-04-06T23:36:26.024Z,11.17
2019-04-06T23:38:55.090Z,12.10
2019-04-06T23:41:24.120Z,12.57
2019-04-06T23:43:53.157Z,12.00
2019-04-06T23:46:22.506Z,13.23
2019-04-06T23:48:52.061Z,10.63
2019-04-06T23:51:22.135Z,11.60
2019-04-06T23:53:51.199Z,12.07
2019-04-06T23:56:20.510Z,11.43
2019-04-06T23:58:49.805Z,13.00
